createdAt,value
2022-08-05T00:00:23.866Z,25.30
2022-08-05T00:02:54.173Z,25.40
2022-08-05T00:06:02.984Z,25.40
2022-08-05T00:08:34.700Z,25.30
2022-08-05T00:11:01.775Z,25.20
2022-08-05T00:13:38.921Z,25.10
2022-08-05T00:16:11.064Z,25.00
2022-08-05T00:18:44.567Z,24.90
2022-08-05T00:21:14.383Z,24.80
2022-08-05T00:23:53.759Z,24.80
2022-08-05T00:26:34.375Z,24.70
2022-08-05T00:29:02.537Z,24.60
2022-08-05T00:31:53.635Z,24.60
2022-08-05T00:34:55.988Z,24.50
2022-08-05T00:37:12.816Z,24.50
2022-08-05T00:39:57.253Z,24.40
2022-08-05T00:42:34.347Z,24.40
2022-08-05T00:45:02.856Z,24.30
2022-08-05T00:47:53.276Z,24.30
2022-08-05T00:50:20.881Z,24.30
2022-08-05T00:52:49.275Z,24.20
2022-08-05T00:55:18.994Z,24.20
2022-08-05T00:57:55.463Z,24.10
2022-08-05T01:00:26.275Z,24.10
2022-08-05T01:02:54.465Z,24.00
2022-08-05T01:05:22.876Z,23.90
2022-08-05T01:08:40.389Z,23.90
2022-08-05T01:10:52.196Z,23.90
2022-08-05T01:13:27.146Z,23.90
2022-08-05T01:16:26.116Z,23.90
2022-08-05T01:19:00.808Z,23.90
2022-08-05T01:22:07.870Z,23.90
2022-08-05T01:25:07.034Z,23.90
2022-08-05T01:28:08.772Z,23.80
2022-08-05T01:30:49.227Z,23.80
2022-08-05T01:33:29.444Z,23.70
2022-08-05T01:36:13.103Z,23.60
2022-08-05T01:38:48.474Z,23.60
2022-08-05T01:41:21.898Z,23.40
2022-08-05T01:43:53.218Z,23.50
2022-08-05T01:46:41.447Z,23.40
2022-08-05T01:49:23.074Z,23.40
2022-08-05T01:51:56.287Z,23.40
2022-08-05T01:54:29.521Z,23.30
2022-08-05T01:58:11.254Z,23.30
2022-08-05T01:59:52.569Z,23.20
2022-08-05T02:02:28.137Z,23.30
2022-08-05T02:05:00.125Z,23.20
2022-08-05T02:07:30.349Z,23.20
2022-08-05T02:09:59.235Z,23.10
2022-08-05T02:12:35.856Z,23.10
2022-08-05T02:15:12.369Z,23.20
2022-08-05T02:18:33.037Z,23.10
2022-08-05T02:20:41.544Z,23.10
2022-08-05T02:23:12.900Z,23.10
2022-08-05T02:25:49.714Z,23.10
2022-08-05T02:28:28.952Z,23.10
2022-08-05T02:31:04.144Z,23.10
2022-08-05T02:33:38.875Z,23.00
2022-08-05T02:36:15.975Z,22.90
2022-08-05T02:38:52.802Z,22.90
2022-08-05T02:41:28.992Z,22.90
2022-08-05T02:44:13.842Z,22.80
2022-08-05T02:46:58.836Z,22.70
2022-08-05T02:49:35.669Z,22.70
2022-08-05T02:52:08.023Z,22.70
2022-08-05T02:54:41.193Z,22.70
2022-08-05T02:58:11.078Z,22.70
2022-08-05T03:00:02.619Z,22.60
2022-08-05T03:02:37.848Z,22.60
2022-08-05T03:05:08.731Z,22.50
2022-08-05T03:07:59.435Z,22.40
2022-08-05T03:10:28.901Z,22.30
2022-08-05T03:15:24.581Z,22.20
2022-08-05T03:17:57.620Z,22.20
2022-08-05T03:20:26.711Z,22.20
2022-08-05T03:22:57.542Z,22.20
2022-08-05T03:25:32.684Z,22.20
2022-08-05T03:28:03.587Z,22.20
2022-08-05T03:30:33.923Z,22.20
2022-08-05T03:33:06.094Z,22.20
2022-08-05T03:35:41.164Z,22.20
2022-08-05T03:38:12.070Z,22.10
2022-08-05T03:40:45.299Z,22.10
2022-08-05T03:44:08.633Z,22.00
2022-08-05T03:46:04.980Z,22.10
2022-08-05T03:48:35.404Z,22.10
2022-08-05T03:52:36.629Z,22.00
2022-08-05T03:55:53.958Z,22.00
2022-08-05T03:56:58.931Z,21.90
2022-08-05T03:59:46.887Z,21.90
2022-08-05T04:02:38.594Z,21.90
2022-08-05T04:05:10.588Z,21.90
2022-08-05T04:07:58.177Z,22.00
2022-08-05T04:10:32.056Z,22.00
2022-08-05T04:13:06.411Z,22.00
2022-08-05T04:15:36.251Z,22.00
2022-08-05T04:18:07.377Z,22.10
2022-08-05T04:20:41.203Z,22.10
2022-08-05T04:23:12.616Z,22.10
2022-08-05T04:25:57.315Z,22.20
2022-08-05T04:28:31.595Z,22.20
2022-08-05T04:31:01.434Z,22.30
2022-08-05T04:33:36.364Z,22.30
2022-08-05T04:36:46.054Z,22.30
2022-08-05T04:39:07.887Z,22.40
2022-08-05T04:41:37.707Z,22.40
2022-08-05T04:44:09.065Z,22.40
2022-08-05T04:46:38.317Z,22.40
2022-08-05T04:49:12.348Z,22.50
2022-08-05T04:51:44.533Z,22.50
2022-08-05T04:54:14.579Z,22.50
2022-08-05T04:56:43.652Z,22.50
2022-08-05T04:59:21.641Z,22.50
2022-08-05T05:02:07.285Z,22.50
2022-08-05T05:04:43.839Z,22.60
2022-08-05T05:07:15.956Z,22.60
2022-08-05T05:09:45.181Z,22.70
2022-08-05T05:12:13.135Z,22.70
2022-08-05T05:14:50.793Z,22.70
2022-08-05T05:17:23.935Z,22.70
2022-08-05T05:19:56.424Z,22.80
2022-08-05T05:22:26.889Z,22.80
2022-08-05T05:24:57.572Z,22.80
2022-08-05T05:27:44.395Z,22.80
2022-08-05T05:30:29.077Z,22.80
2022-08-05T05:33:00.998Z,22.90
2022-08-05T05:35:37.794Z,22.90
2022-08-05T05:38:09.063Z,23.00
2022-08-05T05:40:48.277Z,23.00
2022-08-05T05:43:22.302Z,23.10
2022-08-05T05:46:09.510Z,23.20
2022-08-05T05:48:42.161Z,23.20
2022-08-05T05:51:15.758Z,23.20
2022-08-05T05:53:54.446Z,23.20
2022-08-05T05:56:33.370Z,23.30
2022-08-05T05:59:05.125Z,23.40
2022-08-05T06:01:37.617Z,23.40
2022-08-05T06:04:08.179Z,23.40
2022-08-05T06:06:39.505Z,23.50
2022-08-05T06:09:18.062Z,23.50
2022-08-05T06:12:01.457Z,23.60
2022-08-05T06:14:30.774Z,23.70
2022-08-05T06:16:59.533Z,23.80
2022-08-05T06:19:34.666Z,23.90
2022-08-05T06:22:03.610Z,24.00
2022-08-05T06:24:33.897Z,24.10
2022-08-05T06:27:04.113Z,24.20
2022-08-05T06:29:48.852Z,24.30
2022-08-05T06:32:25.428Z,24.40
2022-08-05T06:34:57.403Z,24.60
2022-08-05T06:37:52.299Z,24.70
2022-08-05T06:40:18.061Z,24.90
2022-08-05T06:42:51.628Z,25.00
2022-08-05T06:45:55.483Z,25.10
2022-08-05T06:48:36.216Z,25.20
2022-08-05T06:50:57.912Z,25.30
2022-08-05T06:53:28.516Z,25.40
2022-08-05T06:55:59.257Z,25.50
2022-08-05T06:58:35.033Z,25.60
2022-08-05T07:01:05.914Z,25.70
2022-08-05T07:03:34.551Z,25.70
2022-08-05T07:06:06.196Z,25.80
2022-08-05T07:08:43.170Z,25.90
2022-08-05T07:11:17.724Z,25.90
2022-08-05T07:14:15.388Z,26.00
2022-08-05T07:18:00.304Z,26.10
2022-08-05T07:22:35.569Z,26.20
2022-08-05T07:25:23.654Z,26.30
2022-08-05T07:27:56.414Z,26.30
2022-08-05T07:30:31.736Z,26.40
2022-08-05T07:33:00.309Z,26.40
2022-08-05T07:36:05.157Z,26.60
2022-08-05T07:38:32.273Z,26.60
2022-08-05T07:42:09.648Z,26.70
2022-08-05T07:43:56.335Z,26.80
2022-08-05T07:46:26.382Z,26.80
2022-08-05T07:49:02.346Z,26.80
2022-08-05T07:51:41.143Z,27.00
2022-08-05T07:54:18.762Z,27.10
2022-08-05T07:57:02.933Z,27.00
2022-08-05T07:59:40.010Z,27.10
2022-08-05T08:02:15.264Z,27.20
2022-08-05T08:04:46.118Z,27.30
2022-08-05T08:07:15.081Z,27.30
2022-08-05T08:09:43.741Z,27.40
2022-08-05T08:12:35.585Z,27.50
2022-08-05T08:15:04.296Z,27.60
2022-08-05T08:17:33.211Z,27.60
2022-08-05T08:20:21.205Z,27.70
2022-08-05T08:22:54.124Z,27.80
2022-08-05T08:25:27.109Z,27.90
2022-08-05T08:28:18.737Z,28.00
2022-08-05T08:31:02.140Z,28.10
2022-08-05T08:33:36.162Z,28.20
2022-08-05T08:36:38.304Z,28.20
2022-08-05T08:38:57.076Z,28.30
2022-08-05T08:41:50.973Z,28.40
2022-08-05T08:45:21.056Z,28.40
2022-08-05T08:47:47.014Z,28.50
2022-08-05T08:50:22.251Z,28.50
2022-08-05T08:52:51.523Z,28.50
2022-08-05T08:56:02.150Z,28.60
2022-08-05T08:58:10.681Z,28.60
2022-08-05T09:00:44.363Z,28.70
2022-08-05T09:03:16.253Z,28.80
2022-08-05T09:06:08.676Z,28.90
2022-08-05T09:08:40.236Z,28.90
2022-08-05T09:11:12.221Z,29.00
2022-08-05T09:14:09.312Z,29.10
2022-08-05T09:16:31.316Z,29.10
2022-08-05T09:19:00.788Z,29.20
2022-08-05T09:22:22.720Z,29.20
2022-08-05T09:24:18.432Z,29.30
2022-08-05T09:26:52.575Z,29.40
2022-08-05T09:29:20.834Z,29.50
2022-08-05T09:32:51.179Z,29.50
2022-08-05T09:34:56.067Z,29.60
2022-08-05T09:38:12.125Z,29.60
2022-08-05T09:40:32.154Z,29.70
2022-08-05T09:43:01.606Z,29.80
2022-08-05T09:46:07.312Z,29.90
2022-08-05T09:48:28.489Z,30.10
2022-08-05T09:51:00.680Z,30.30
2022-08-05T09:53:55.003Z,30.60
2022-08-05T09:56:26.165Z,30.90
2022-08-05T09:58:58.924Z,31.40
2022-08-05T10:01:32.551Z,31.60
2022-08-05T10:04:04.522Z,31.80
2022-08-05T10:06:41.473Z,31.90
2022-08-05T10:09:27.811Z,32.10
2022-08-05T10:12:30.656Z,32.20
2022-08-05T10:15:16.309Z,32.30
2022-08-05T10:17:56.547Z,32.30
2022-08-05T10:20:27.067Z,32.20
2022-08-05T10:22:58.491Z,32.20
2022-08-05T10:25:26.713Z,32.20
2022-08-05T10:28:13.360Z,32.10
2022-08-05T10:32:53.218Z,32.00
2022-08-05T10:33:35.092Z,32.00
2022-08-05T10:36:05.099Z,31.90
2022-08-05T10:38:36.594Z,32.00
2022-08-05T10:41:13.893Z,32.10
2022-08-05T10:43:50.268Z,32.10
2022-08-05T10:46:23.836Z,32.10
2022-08-05T10:49:02.770Z,32.10
2022-08-05T10:51:53.137Z,32.10
2022-08-05T10:54:56.704Z,32.20
2022-08-05T10:57:30.947Z,32.30
2022-08-05T11:00:18.472Z,32.30
2022-08-05T11:03:25.805Z,32.30
2022-08-05T11:06:14.968Z,32.40
2022-08-05T11:09:13.214Z,32.70
2022-08-05T11:11:52.922Z,33.50
2022-08-05T11:14:49.145Z,34.20
2022-08-05T11:17:59.449Z,34.70
2022-08-05T11:20:44.139Z,35.30
2022-08-05T11:24:03.948Z,35.60
2022-08-05T11:26:28.751Z,36.00
2022-08-05T11:29:12.052Z,35.80
2022-08-05T11:31:57.686Z,35.70
2022-08-05T11:34:40.142Z,35.80
2022-08-05T11:38:28.889Z,36.20
2022-08-05T11:41:01.289Z,36.30
2022-08-05T11:44:04.645Z,36.30
2022-08-05T11:46:35.117Z,36.60
2022-08-05T11:49:04.994Z,36.70
2022-08-05T11:51:43.765Z,36.60
2022-08-05T11:54:33.767Z,36.60
2022-08-05T11:57:08.325Z,36.70
2022-08-05T11:59:52.162Z,36.70
2022-08-05T12:02:30.068Z,36.50
2022-08-05T12:05:07.263Z,36.40
2022-08-05T12:08:10.542Z,36.40
2022-08-05T12:10:43.567Z,36.30
2022-08-05T12:13:17.257Z,36.60
2022-08-05T12:15:56.435Z,36.60
2022-08-05T12:18:38.610Z,36.50
2022-08-05T12:21:15.345Z,36.40
2022-08-05T12:23:54.498Z,36.20
2022-08-05T12:26:23.848Z,35.90
2022-08-05T12:28:52.332Z,35.70
2022-08-05T12:31:32.678Z,35.80
2022-08-05T12:34:14.642Z,35.80
2022-08-05T12:36:50.890Z,35.60
2022-08-05T12:39:20.300Z,35.20
2022-08-05T12:41:48.772Z,34.90
2022-08-05T12:44:28.656Z,34.80
2022-08-05T12:47:02.327Z,34.70
2022-08-05T12:50:04.369Z,34.90
2022-08-05T12:52:38.836Z,35.20
2022-08-05T12:55:22.184Z,35.40
2022-08-05T12:58:52.341Z,35.60
2022-08-05T13:02:01.802Z,35.30
2022-08-05T13:03:33.259Z,35.30
2022-08-05T13:06:03.118Z,35.10
2022-08-05T13:08:32.905Z,35.00
2022-08-05T13:11:02.009Z,34.80
2022-08-05T13:14:06.266Z,34.80
2022-08-05T13:16:20.828Z,34.80
2022-08-05T13:18:57.752Z,35.10
2022-08-05T13:21:47.739Z,35.50
2022-08-05T13:24:36.357Z,35.90
2022-08-05T13:27:05.717Z,35.80
2022-08-05T13:29:39.205Z,35.80
2022-08-05T13:32:34.018Z,35.90
2022-08-05T13:35:03.500Z,35.90
2022-08-05T13:37:34.894Z,35.90
2022-08-05T13:40:15.093Z,36.10
2022-08-05T13:42:48.169Z,36.00
2022-08-05T13:45:23.753Z,36.10
2022-08-05T13:48:08.618Z,36.20
2022-08-05T13:50:38.000Z,36.20
2022-08-05T13:53:09.029Z,36.20
2022-08-05T13:55:50.149Z,36.30
2022-08-05T13:58:30.324Z,36.40
2022-08-05T14:00:59.644Z,36.60
2022-08-05T14:03:28.651Z,37.00
2022-08-05T14:06:24.656Z,37.10
2022-08-05T14:08:45.646Z,36.80
2022-08-05T14:11:20.836Z,36.70
2022-08-05T14:13:54.782Z,36.70
2022-08-05T14:16:25.256Z,36.60
2022-08-05T14:18:53.644Z,36.80
2022-08-05T14:22:06.970Z,37.20
2022-08-05T14:24:12.304Z,37.70
2022-08-05T14:26:51.368Z,37.70
2022-08-05T14:29:28.657Z,37.80
2022-08-05T14:32:12.168Z,37.70
2022-08-05T14:34:47.373Z,37.50
2022-08-05T14:37:17.141Z,37.80
2022-08-05T14:39:56.759Z,38.00
2022-08-05T14:42:25.668Z,38.00
2022-08-05T14:44:53.838Z,37.70
2022-08-05T14:48:05.198Z,37.70
2022-08-05T14:50:18.359Z,37.80
2022-08-05T14:52:53.584Z,38.10
2022-08-05T14:55:28.733Z,38.40
2022-08-05T14:58:10.925Z,38.40
2022-08-05T15:00:58.353Z,38.50
2022-08-05T15:03:27.116Z,38.60
2022-08-05T15:06:08.209Z,38.70
2022-08-05T15:08:59.146Z,39.00
2022-08-05T15:11:52.425Z,38.90
2022-08-05T15:14:34.301Z,38.50
2022-08-05T15:17:09.916Z,38.40
2022-08-05T15:19:55.133Z,38.70
2022-08-05T15:22:27.197Z,38.80
2022-08-05T15:24:56.434Z,39.00
2022-08-05T15:27:26.328Z,39.50
2022-08-05T15:30:00.466Z,39.80
2022-08-05T15:32:28.956Z,40.20
2022-08-05T15:34:57.206Z,40.00
2022-08-05T15:38:32.717Z,39.50
2022-08-05T15:40:58.221Z,39.20
2022-08-05T15:43:12.445Z,39.30
2022-08-05T15:45:47.977Z,39.50
2022-08-05T15:48:29.667Z,39.50
2022-08-05T15:50:58.273Z,39.70
2022-08-05T15:53:38.346Z,39.60
2022-08-05T15:56:19.342Z,39.40
2022-08-05T15:58:49.174Z,39.20
2022-08-05T16:01:18.710Z,39.40
2022-08-05T16:03:50.615Z,39.10
2022-08-05T16:06:20.411Z,38.90
2022-08-05T16:08:50.407Z,38.70
2022-08-05T16:11:42.824Z,38.50
2022-08-05T16:14:17.062Z,38.40
2022-08-05T16:16:46.203Z,38.30
2022-08-05T16:19:25.344Z,38.40
2022-08-05T16:22:03.313Z,38.40
2022-08-05T16:24:41.442Z,38.30
2022-08-05T16:27:32.349Z,38.20
2022-08-05T16:30:25.562Z,37.80
2022-08-05T16:32:54.727Z,37.20
2022-08-05T16:35:27.681Z,36.70
2022-08-05T16:38:15.171Z,36.40
2022-08-05T16:40:51.966Z,36.30
2022-08-05T16:43:24.390Z,36.50
2022-08-05T16:46:03.733Z,36.50
2022-08-05T16:48:38.553Z,36.70
2022-08-05T16:51:09.330Z,36.70
2022-08-05T16:54:02.811Z,36.60
2022-08-05T16:56:29.212Z,36.40
2022-08-05T16:58:57.784Z,36.10
2022-08-05T17:01:27.352Z,35.90
2022-08-05T17:04:15.303Z,35.70
2022-08-05T17:06:43.568Z,35.40
2022-08-05T17:09:21.657Z,35.20
2022-08-05T17:11:56.111Z,34.90
2022-08-05T17:14:36.889Z,34.70
2022-08-05T17:17:14.574Z,34.50
2022-08-05T17:19:45.250Z,34.40
2022-08-05T17:22:24.446Z,34.40
2022-08-05T17:24:57.450Z,34.20
2022-08-05T17:27:33.875Z,34.00
2022-08-05T17:30:03.267Z,34.00
2022-08-05T17:32:34.697Z,33.90
2022-08-05T17:35:03.991Z,33.80
2022-08-05T17:37:39.717Z,33.70
2022-08-05T17:40:13.137Z,33.60
2022-08-05T17:42:49.869Z,33.40
2022-08-05T17:45:21.840Z,33.40
2022-08-05T17:47:55.708Z,33.60
2022-08-05T17:50:28.340Z,33.70
2022-08-05T17:52:58.832Z,33.70
2022-08-05T17:55:38.389Z,33.60
2022-08-05T17:58:13.334Z,33.30
2022-08-05T18:00:44.947Z,32.80
2022-08-05T18:03:56.575Z,32.50
2022-08-05T18:06:11.873Z,32.20
2022-08-05T18:08:44.412Z,31.90
2022-08-05T18:11:23.795Z,31.60
2022-08-05T18:13:59.699Z,31.60
2022-08-05T18:16:27.945Z,31.30
2022-08-05T18:18:57.594Z,31.10
2022-08-05T18:21:26.079Z,31.00
2022-08-05T18:23:54.792Z,30.90
2022-08-05T18:26:28.973Z,30.80
2022-08-05T18:28:58.864Z,30.70
2022-08-05T18:31:33.908Z,30.50
2022-08-05T18:34:06.042Z,30.50
2022-08-05T18:36:40.025Z,30.50
2022-08-05T18:39:09.987Z,30.40
2022-08-05T18:42:02.200Z,30.40
2022-08-05T18:44:51.388Z,30.50
2022-08-05T18:47:26.379Z,30.50
2022-08-05T18:50:15.473Z,30.50
2022-08-05T18:52:51.153Z,30.40
2022-08-05T18:55:21.529Z,29.90
2022-08-05T18:57:53.243Z,29.20
2022-08-05T19:00:28.487Z,28.00
2022-08-05T19:03:03.873Z,27.80
2022-08-05T19:06:11.670Z,27.30
2022-08-05T19:08:30.686Z,27.00
2022-08-05T19:11:04.835Z,26.70
2022-08-05T19:13:35.998Z,26.60
2022-08-05T19:16:24.964Z,26.50
2022-08-05T19:18:53.951Z,26.40
2022-08-05T19:21:29.490Z,26.40
2022-08-05T19:24:05.455Z,26.50
2022-08-05T19:26:54.947Z,26.50
2022-08-05T19:29:26.520Z,26.50
2022-08-05T19:32:03.740Z,26.50
2022-08-05T19:34:32.561Z,26.50
2022-08-05T19:37:01.964Z,26.60
2022-08-05T19:39:30.576Z,26.70
2022-08-05T19:42:06.916Z,26.90
2022-08-05T19:44:44.521Z,26.90
2022-08-05T19:47:15.297Z,26.60
2022-08-05T19:49:44.792Z,26.40
2022-08-05T19:52:30.498Z,26.40
2022-08-05T19:55:06.970Z,26.30
2022-08-05T19:57:57.231Z,26.30
2022-08-05T20:00:25.149Z,26.30
2022-08-05T20:02:53.851Z,26.30
2022-08-05T20:05:24.072Z,26.30
2022-08-05T20:07:58.773Z,26.30
2022-08-05T20:10:27.407Z,26.20
2022-08-05T20:12:57.043Z,26.10
2022-08-05T20:15:48.231Z,25.90
2022-08-05T20:18:32.551Z,25.60
2022-08-05T20:21:01.621Z,25.30
2022-08-05T20:23:39.324Z,25.10
2022-08-05T20:26:20.112Z,25.00
2022-08-05T20:28:50.715Z,24.90
2022-08-05T20:33:57.053Z,24.70
2022-08-05T20:36:25.896Z,24.70
2022-08-05T20:38:57.755Z,24.70
2022-08-05T20:41:44.222Z,24.70
2022-08-05T20:44:18.433Z,24.60
2022-08-05T20:46:57.849Z,24.70
2022-08-05T20:49:26.402Z,24.60
2022-08-05T20:51:55.115Z,24.60
2022-08-05T20:54:25.792Z,24.70
2022-08-05T20:57:14.297Z,24.70
2022-08-05T21:00:10.661Z,24.80
2022-08-05T21:02:30.861Z,24.80
2022-08-05T21:04:58.869Z,24.80
2022-08-05T21:07:50.744Z,24.80
2022-08-05T21:10:19.813Z,24.80
2022-08-05T21:12:57.929Z,24.70
2022-08-05T21:15:35.813Z,24.60
2022-08-05T21:18:04.273Z,24.50
2022-08-05T21:20:34.169Z,24.50
2022-08-05T21:23:03.089Z,24.60
2022-08-05T21:25:33.885Z,24.60
2022-08-05T21:28:03.111Z,24.70
2022-08-05T21:30:31.469Z,24.70
2022-08-05T21:33:01.819Z,24.70
2022-08-05T21:35:43.954Z,24.60
2022-08-05T21:38:20.060Z,24.60
2022-08-05T21:40:49.473Z,24.60
2022-08-05T21:43:24.772Z,24.60
2022-08-05T21:45:56.441Z,24.60
2022-08-05T21:48:25.462Z,24.60
2022-08-05T21:50:54.529Z,24.60
2022-08-05T21:53:27.461Z,24.50
2022-08-05T21:56:05.619Z,24.40
2022-08-05T21:58:42.298Z,24.30
2022-08-05T22:01:23.931Z,24.30
2022-08-05T22:03:53.626Z,24.30
2022-08-05T22:06:35.548Z,24.30
2022-08-05T22:09:14.782Z,24.30
2022-08-05T22:11:46.999Z,24.20
2022-08-05T22:14:32.659Z,24.10
2022-08-05T22:17:05.057Z,24.10
2022-08-05T22:20:02.226Z,24.10
2022-08-05T22:22:27.708Z,24.10
2022-08-05T22:25:21.357Z,24.10
2022-08-05T22:28:09.537Z,24.10
2022-08-05T22:30:53.515Z,24.10
2022-08-05T22:33:55.534Z,24.10
2022-08-05T22:36:14.182Z,24.10
2022-08-05T22:38:42.650Z,24.00
2022-08-05T22:41:10.980Z,24.00
2022-08-05T22:43:41.280Z,23.90
2022-08-05T22:46:13.630Z,23.90
2022-08-05T22:48:51.520Z,23.80
2022-08-05T22:51:22.689Z,23.60
2022-08-05T22:53:51.952Z,23.50
2022-08-05T22:56:30.581Z,23.50
2022-08-05T22:59:02.949Z,23.40
2022-08-05T23:01:50.788Z,23.30
2022-08-05T23:04:20.859Z,23.30
2022-08-05T23:06:48.916Z,23.20
2022-08-05T23:09:27.543Z,23.20
2022-08-05T23:12:05.983Z,23.30
2022-08-05T23:14:35.616Z,23.20
2022-08-05T23:17:24.005Z,23.10
2022-08-05T23:19:58.383Z,23.10
2022-08-05T23:22:28.207Z,23.10
2022-08-05T23:24:56.607Z,23.00
2022-08-05T23:27:31.522Z,23.00
2022-08-05T23:30:14.971Z,22.90
2022-08-05T23:32:45.348Z,22.80
2022-08-05T23:35:13.758Z,22.80
2022-08-05T23:37:41.952Z,22.80
2022-08-05T23:40:12.102Z,22.80
2022-08-05T23:42:40.187Z,22.80
2022-08-05T23:45:16.911Z,22.90
2022-08-05T23:47:47.857Z,22.90
2022-08-05T23:50:20.012Z,22.80
2022-08-05T23:52:50.668Z,22.90
2022-08-05T23:55:19.966Z,22.90
2022-08-05T23:57:51.270Z,22.90
